English, West Virginia
Current Conditions -  °F | °C
As of 11:15 PM on Friday 31 Oct 2014 (Local Time) from KJFZ Reporting Station
Light Snow Light Snow  
Wind Chill: 31°   Ceiling: 300
Heat Index: 37°   Visibility: 5mi
Dew Point: 35°   Wind: 7mph
Humidity: 93%   Direction: 290°WNW
Pressure: 29.84"   Gusts: NA
Location:  37.34°N, 81.72°W
Report Text: KJFZ 010315Z AUTO 29006KT 5SM -SN OVC003 03/02 A2984 RMK AO2 T00250015
Loading
Personal Weather Stations






























Interactive Weather Map
Tropical Storm Tracking
New forecast layout! Learn more

10-Day Weather Forecast

Advertisements
Track Severe Weather on mobile